sensor_id;sensor_type;location;lat;lon;timestamp;temperature;humidity
14995;DHT22;7593;49.006;8.372;2022-08-01T00:01:35;22.90;80.80
14995;DHT22;7593;49.006;8.372;2022-08-01T00:04:02;22.90;81.00
14995;DHT22;7593;49.006;8.372;2022-08-01T00:06:30;22.80;81.20
14995;DHT22;7593;49.006;8.372;2022-08-01T00:08:57;22.70;81.50
14995;DHT22;7593;49.006;8.372;2022-08-01T00:11:24;22.60;81.60
14995;DHT22;7593;49.006;8.372;2022-08-01T00:13:51;22.60;81.90
14995;DHT22;7593;49.006;8.372;2022-08-01T00:16:18;22.50;82.20
14995;DHT22;7593;49.006;8.372;2022-08-01T00:18:49;22.50;82.40
14995;DHT22;7593;49.006;8.372;2022-08-01T00:21:16;22.40;82.50
14995;DHT22;7593;49.006;8.372;2022-08-01T00:23:43;22.50;82.70
14995;DHT22;7593;49.006;8.372;2022-08-01T00:26:10;22.40;82.80
14995;DHT22;7593;49.006;8.372;2022-08-01T00:28:37;22.40;82.90
14995;DHT22;7593;49.006;8.372;2022-08-01T00:31:04;22.40;83.00
14995;DHT22;7593;49.006;8.372;2022-08-01T00:33:31;22.40;83.20
14995;DHT22;7593;49.006;8.372;2022-08-01T00:35:59;22.40;83.20
14995;DHT22;7593;49.006;8.372;2022-08-01T00:38:26;22.40;83.30
14995;DHT22;7593;49.006;8.372;2022-08-01T00:40:53;22.40;83.50
14995;DHT22;7593;49.006;8.372;2022-08-01T00:43:19;22.40;83.70
14995;DHT22;7593;49.006;8.372;2022-08-01T00:45:46;22.30;83.80
14995;DHT22;7593;49.006;8.372;2022-08-01T00:48:13;22.30;84.20
14995;DHT22;7593;49.006;8.372;2022-08-01T00:50:40;22.20;84.30
14995;DHT22;7593;49.006;8.372;2022-08-01T00:53:08;22.20;84.60
14995;DHT22;7593;49.006;8.372;2022-08-01T00:55:35;22.10;84.80
14995;DHT22;7593;49.006;8.372;2022-08-01T00:58:02;22.10;85.10
14995;DHT22;7593;49.006;8.372;2022-08-01T01:00:29;22.10;85.40
14995;DHT22;7593;49.006;8.372;2022-08-01T01:02:56;22.00;85.60
14995;DHT22;7593;49.006;8.372;2022-08-01T01:05:22;22.00;85.90
14995;DHT22;7593;49.006;8.372;2022-08-01T01:07:53;22.00;86.30
14995;DHT22;7593;49.006;8.372;2022-08-01T01:10:28;21.90;86.50
14995;DHT22;7593;49.006;8.372;2022-08-01T01:13:02;21.80;86.60
14995;DHT22;7593;49.006;8.372;2022-08-01T01:15:34;21.80;86.80
14995;DHT22;7593;49.006;8.372;2022-08-01T01:18:03;21.80;86.90
14995;DHT22;7593;49.006;8.372;2022-08-01T01:20:33;21.80;87.10
14995;DHT22;7593;49.006;8.372;2022-08-01T01:23:14;21.70;87.20
14995;DHT22;7593;49.006;8.372;2022-08-01T01:28:40;21.70;87.40
14995;DHT22;7593;49.006;8.372;2022-08-01T01:31:12;21.70;87.70
14995;DHT22;7593;49.006;8.372;2022-08-01T01:33:40;21.70;88.60
14995;DHT22;7593;49.006;8.372;2022-08-01T01:36:09;21.70;88.00
14995;DHT22;7593;49.006;8.372;2022-08-01T01:38:41;21.60;88.00
14995;DHT22;7593;49.006;8.372;2022-08-01T01:41:10;21.60;88.30
14995;DHT22;7593;49.006;8.372;2022-08-01T01:43:38;21.60;88.50
14995;DHT22;7593;49.006;8.372;2022-08-01T01:46:06;21.50;88.60
14995;DHT22;7593;49.006;8.372;2022-08-01T01:48:35;21.60;88.90
14995;DHT22;7593;49.006;8.372;2022-08-01T01:51:03;21.50;89.00
14995;DHT22;7593;49.006;8.372;2022-08-01T01:53:33;21.60;89.20
14995;DHT22;7593;49.006;8.372;2022-08-01T01:56:01;21.60;89.40
14995;DHT22;7593;49.006;8.372;2022-08-01T01:58:29;21.60;89.40
14995;DHT22;7593;49.006;8.372;2022-08-01T02:00:58;21.50;89.70
14995;DHT22;7593;49.006;8.372;2022-08-01T02:03:28;21.50;89.90
14995;DHT22;7593;49.006;8.372;2022-08-01T02:05:58;21.50;90.00
14995;DHT22;7593;49.006;8.372;2022-08-01T02:08:27;21.50;90.00
14995;DHT22;7593;49.006;8.372;2022-08-01T02:10:55;21.50;90.10
14995;DHT22;7593;49.006;8.372;2022-08-01T02:13:41;21.50;90.20
14995;DHT22;7593;49.006;8.372;2022-08-01T02:16:09;21.50;90.40
14995;DHT22;7593;49.006;8.372;2022-08-01T02:18:37;21.50;90.40
14995;DHT22;7593;49.006;8.372;2022-08-01T02:21:09;21.40;90.50
14995;DHT22;7593;49.006;8.372;2022-08-01T02:23:38;21.40;90.60
14995;DHT22;7593;49.006;8.372;2022-08-01T02:26:09;21.30;90.60
14995;DHT22;7593;49.006;8.372;2022-08-01T02:28:42;21.30;90.70
14995;DHT22;7593;49.006;8.372;2022-08-01T02:31:13;21.40;90.80
14995;DHT22;7593;49.006;8.372;2022-08-01T02:33:46;21.30;90.90
14995;DHT22;7593;49.006;8.372;2022-08-01T02:36:16;21.30;90.90
14995;DHT22;7593;49.006;8.372;2022-08-01T02:38:45;21.30;91.00
14995;DHT22;7593;49.006;8.372;2022-08-01T02:41:14;21.20;91.00
14995;DHT22;7593;49.006;8.372;2022-08-01T02:43:47;21.20;91.00
14995;DHT22;7593;49.006;8.372;2022-08-01T02:46:20;21.20;91.10
14995;DHT22;7593;49.006;8.372;2022-08-01T02:48:48;21.20;91.20
14995;DHT22;7593;49.006;8.372;2022-08-01T02:51:19;21.20;91.30
14995;DHT22;7593;49.006;8.372;2022-08-01T02:53:48;21.20;91.40
14995;DHT22;7593;49.006;8.372;2022-08-01T02:56:17;21.20;91.50
14995;DHT22;7593;49.006;8.372;2022-08-01T02:58:46;21.10;91.50
14995;DHT22;7593;49.006;8.372;2022-08-01T03:01:14;21.10;91.50
14995;DHT22;7593;49.006;8.372;2022-08-01T03:03:41;21.10;91.70
14995;DHT22;7593;49.006;8.372;2022-08-01T03:06:09;21.00;91.70
14995;DHT22;7593;49.006;8.372;2022-08-01T03:08:38;21.00;91.80
14995;DHT22;7593;49.006;8.372;2022-08-01T03:11:06;21.00;92.00
14995;DHT22;7593;49.006;8.372;2022-08-01T03:13:33;20.90;92.00
14995;DHT22;7593;49.006;8.372;2022-08-01T03:16:02;20.90;92.10
14995;DHT22;7593;49.006;8.372;2022-08-01T03:18:30;20.90;92.20
14995;DHT22;7593;49.006;8.372;2022-08-01T03:20:59;20.90;92.20
14995;DHT22;7593;49.006;8.372;2022-08-01T03:23:28;20.90;92.40
14995;DHT22;7593;49.006;8.372;2022-08-01T03:25:58;20.80;92.40
14995;DHT22;7593;49.006;8.372;2022-08-01T03:28:26;20.80;92.50
14995;DHT22;7593;49.006;8.372;2022-08-01T03:30:53;20.80;92.60
14995;DHT22;7593;49.006;8.372;2022-08-01T03:33:20;20.70;92.70
14995;DHT22;7593;49.006;8.372;2022-08-01T03:35:50;20.70;92.90
14995;DHT22;7593;49.006;8.372;2022-08-01T03:38:22;20.60;92.90
14995;DHT22;7593;49.006;8.372;2022-08-01T03:40:53;20.50;93.00
14995;DHT22;7593;49.006;8.372;2022-08-01T03:43:27;20.50;93.20
14995;DHT22;7593;49.006;8.372;2022-08-01T03:46:01;20.50;93.40
14995;DHT22;7593;49.006;8.372;2022-08-01T03:48:29;20.50;93.40
14995;DHT22;7593;49.006;8.372;2022-08-01T03:50:59;20.50;93.60
14995;DHT22;7593;49.006;8.372;2022-08-01T03:53:30;20.40;93.70
14995;DHT22;7593;49.006;8.372;2022-08-01T03:55:58;20.50;93.70
14995;DHT22;7593;49.006;8.372;2022-08-01T03:58:28;20.50;93.70
14995;DHT22;7593;49.006;8.372;2022-08-01T04:00:55;20.40;93.70
14995;DHT22;7593;49.006;8.372;2022-08-01T04:03:24;20.40;93.80
14995;DHT22;7593;49.006;8.372;2022-08-01T04:05:52;20.40;93.90
14995;DHT22;7593;49.006;8.372;2022-08-01T04:08:19;20.40;94.00
14995;DHT22;7593;49.006;8.372;2022-08-01T04:10:46;20.40;94.20
14995;DHT22;7593;49.006;8.372;2022-08-01T04:13:12;20.30;94.20
14995;DHT22;7593;49.006;8.372;2022-08-01T04:15:40;20.30;94.30
14995;DHT22;7593;49.006;8.372;2022-08-01T04:18:07;20.30;94.30
14995;DHT22;7593;49.006;8.372;2022-08-01T04:20:34;20.20;94.40
14995;DHT22;7593;49.006;8.372;2022-08-01T04:23:01;20.20;94.50
14995;DHT22;7593;49.006;8.372;2022-08-01T04:25:32;20.20;94.70
14995;DHT22;7593;49.006;8.372;2022-08-01T04:28:00;20.20;94.70
14995;DHT22;7593;49.006;8.372;2022-08-01T04:30:32;20.20;94.70
14995;DHT22;7593;49.006;8.372;2022-08-01T04:33:04;20.20;94.80
14995;DHT22;7593;49.006;8.372;2022-08-01T04:35:33;20.20;94.80
14995;DHT22;7593;49.006;8.372;2022-08-01T04:38:01;20.20;94.80
14995;DHT22;7593;49.006;8.372;2022-08-01T04:40:29;20.30;94.90
14995;DHT22;7593;49.006;8.372;2022-08-01T04:42:57;20.30;94.70
14995;DHT22;7593;49.006;8.372;2022-08-01T04:45:24;20.30;94.70
14995;DHT22;7593;49.006;8.372;2022-08-01T04:47:52;20.40;94.80
14995;DHT22;7593;49.006;8.372;2022-08-01T04:50:20;20.30;94.80
14995;DHT22;7593;49.006;8.372;2022-08-01T04:52:48;20.30;94.80
14995;DHT22;7593;49.006;8.372;2022-08-01T04:55:16;20.20;94.90
14995;DHT22;7593;49.006;8.372;2022-08-01T04:57:44;20.30;95.00
14995;DHT22;7593;49.006;8.372;2022-08-01T05:00:14;20.30;95.00
14995;DHT22;7593;49.006;8.372;2022-08-01T05:02:42;20.40;95.00
14995;DHT22;7593;49.006;8.372;2022-08-01T05:05:08;20.40;94.90
14995;DHT22;7593;49.006;8.372;2022-08-01T05:07:37;20.50;94.90
14995;DHT22;7593;49.006;8.372;2022-08-01T05:10:05;20.60;94.90
14995;DHT22;7593;49.006;8.372;2022-08-01T05:12:32;20.60;94.90
14995;DHT22;7593;49.006;8.372;2022-08-01T05:14:59;20.60;94.90
14995;DHT22;7593;49.006;8.372;2022-08-01T05:17:25;20.70;95.00
14995;DHT22;7593;49.006;8.372;2022-08-01T05:19:52;20.70;95.00
14995;DHT22;7593;49.006;8.372;2022-08-01T05:22:19;20.80;95.00
14995;DHT22;7593;49.006;8.372;2022-08-01T05:24:47;20.80;95.00
14995;DHT22;7593;49.006;8.372;2022-08-01T05:27:14;20.80;94.90
14995;DHT22;7593;49.006;8.372;2022-08-01T05:29:40;20.90;94.90
14995;DHT22;7593;49.006;8.372;2022-08-01T05:32:07;21.00;94.90
14995;DHT22;7593;49.006;8.372;2022-08-01T05:34:34;21.00;94.90
14995;DHT22;7593;49.006;8.372;2022-08-01T05:37:01;21.10;94.90
14995;DHT22;7593;49.006;8.372;2022-08-01T05:39:28;21.20;95.00
14995;DHT22;7593;49.006;8.372;2022-08-01T05:41:56;21.20;94.90
14995;DHT22;7593;49.006;8.372;2022-08-01T05:44:23;21.20;94.90
14995;DHT22;7593;49.006;8.372;2022-08-01T05:46:50;21.30;94.80
14995;DHT22;7593;49.006;8.372;2022-08-01T05:49:17;21.40;94.90
14995;DHT22;7593;49.006;8.372;2022-08-01T05:51:44;21.40;94.80
14995;DHT22;7593;49.006;8.372;2022-08-01T05:54:11;21.40;94.80
14995;DHT22;7593;49.006;8.372;2022-08-01T05:56:37;21.50;94.80
14995;DHT22;7593;49.006;8.372;2022-08-01T05:59:06;21.60;94.80
14995;DHT22;7593;49.006;8.372;2022-08-01T06:01:33;21.70;94.80
14995;DHT22;7593;49.006;8.372;2022-08-01T06:03:59;21.80;94.70
14995;DHT22;7593;49.006;8.372;2022-08-01T06:06:26;21.90;94.70
14995;DHT22;7593;49.006;8.372;2022-08-01T06:08:53;21.90;94.70
14995;DHT22;7593;49.006;8.372;2022-08-01T06:11:20;22.00;94.70
14995;DHT22;7593;49.006;8.372;2022-08-01T06:13:47;22.00;94.70
14995;DHT22;7593;49.006;8.372;2022-08-01T06:16:15;22.10;94.70
14995;DHT22;7593;49.006;8.372;2022-08-01T06:18:42;22.30;94.60
14995;DHT22;7593;49.006;8.372;2022-08-01T06:21:09;22.40;94.60
14995;DHT22;7593;49.006;8.372;2022-08-01T06:23:35;22.40;94.60
14995;DHT22;7593;49.006;8.372;2022-08-01T06:26:02;22.70;94.90
14995;DHT22;7593;49.006;8.372;2022-08-01T06:28:29;23.10;94.40
14995;DHT22;7593;49.006;8.372;2022-08-01T06:30:56;23.70;93.80
14995;DHT22;7593;49.006;8.372;2022-08-01T06:33:26;24.30;92.90
14995;DHT22;7593;49.006;8.372;2022-08-01T06:35:53;24.70;91.90
14995;DHT22;7593;49.006;8.372;2022-08-01T06:38:20;24.90;91.60
14995;DHT22;7593;49.006;8.372;2022-08-01T06:40:47;24.90;91.60
14995;DHT22;7593;49.006;8.372;2022-08-01T06:43:13;24.70;91.60
14995;DHT22;7593;49.006;8.372;2022-08-01T06:45:40;24.70;91.80
14995;DHT22;7593;49.006;8.372;2022-08-01T06:48:07;24.60;91.80
14995;DHT22;7593;49.006;8.372;2022-08-01T06:50:36;24.50;92.00
14995;DHT22;7593;49.006;8.372;2022-08-01T06:53:03;24.40;92.10
14995;DHT22;7593;49.006;8.372;2022-08-01T06:55:30;24.50;92.40
14995;DHT22;7593;49.006;8.372;2022-08-01T06:57:57;24.60;92.20
14995;DHT22;7593;49.006;8.372;2022-08-01T07:00:25;24.90;92.00
14995;DHT22;7593;49.006;8.372;2022-08-01T07:02:54;25.30;91.80
14995;DHT22;7593;49.006;8.372;2022-08-01T07:05:22;25.80;91.00
14995;DHT22;7593;49.006;8.372;2022-08-01T07:07:50;26.20;90.50
14995;DHT22;7593;49.006;8.372;2022-08-01T07:10:17;26.60;90.00
14995;DHT22;7593;49.006;8.372;2022-08-01T07:12:44;27.40;89.50
14995;DHT22;7593;49.006;8.372;2022-08-01T07:15:11;28.10;86.80
14995;DHT22;7593;49.006;8.372;2022-08-01T07:17:38;28.50;84.50
14995;DHT22;7593;49.006;8.372;2022-08-01T07:20:07;28.80;84.10
14995;DHT22;7593;49.006;8.372;2022-08-01T07:22:34;28.60;83.50
14995;DHT22;7593;49.006;8.372;2022-08-01T07:25:03;28.60;85.00
14995;DHT22;7593;49.006;8.372;2022-08-01T07:27:30;29.10;83.70
14995;DHT22;7593;49.006;8.372;2022-08-01T07:29:57;29.80;81.10
14995;DHT22;7593;49.006;8.372;2022-08-01T07:32:24;29.80;80.40
14995;DHT22;7593;49.006;8.372;2022-08-01T07:34:51;29.90;80.20
14995;DHT22;7593;49.006;8.372;2022-08-01T07:37:18;29.60;79.00
14995;DHT22;7593;49.006;8.372;2022-08-01T07:39:45;29.40;80.20
14995;DHT22;7593;49.006;8.372;2022-08-01T07:42:13;29.50;80.50
14995;DHT22;7593;49.006;8.372;2022-08-01T07:44:40;29.60;80.40
14995;DHT22;7593;49.006;8.372;2022-08-01T07:47:07;29.90;79.40
14995;DHT22;7593;49.006;8.372;2022-08-01T07:49:34;30.10;78.60
14995;DHT22;7593;49.006;8.372;2022-08-01T07:52:00;30.20;78.80
14995;DHT22;7593;49.006;8.372;2022-08-01T07:54:27;30.30;78.00
14995;DHT22;7593;49.006;8.372;2022-08-01T07:56:55;30.30;78.30
14995;DHT22;7593;49.006;8.372;2022-08-01T07:59:23;30.60;77.70
14995;DHT22;7593;49.006;8.372;2022-08-01T08:01:50;30.90;76.80
14995;DHT22;7593;49.006;8.372;2022-08-01T08:04:17;31.40;75.00
14995;DHT22;7593;49.006;8.372;2022-08-01T08:06:44;31.60;74.10
14995;DHT22;7593;49.006;8.372;2022-08-01T08:09:13;32.00;72.90
14995;DHT22;7593;49.006;8.372;2022-08-01T08:11:41;32.20;72.60
14995;DHT22;7593;49.006;8.372;2022-08-01T08:14:08;32.40;71.50
14995;DHT22;7593;49.006;8.372;2022-08-01T08:16:36;32.50;71.20
14995;DHT22;7593;49.006;8.372;2022-08-01T08:19:03;32.50;71.10
14995;DHT22;7593;49.006;8.372;2022-08-01T08:21:30;32.20;71.80
14995;DHT22;7593;49.006;8.372;2022-08-01T08:23:57;32.10;72.30
14995;DHT22;7593;49.006;8.372;2022-08-01T08:26:41;32.20;72.30
14995;DHT22;7593;49.006;8.372;2022-08-01T08:29:08;32.40;71.60
14995;DHT22;7593;49.006;8.372;2022-08-01T08:31:36;32.40;71.70
14995;DHT22;7593;49.006;8.372;2022-08-01T08:34:03;32.40;71.30
14995;DHT22;7593;49.006;8.372;2022-08-01T08:36:30;32.50;70.90
14995;DHT22;7593;49.006;8.372;2022-08-01T08:38:57;32.60;70.70
14995;DHT22;7593;49.006;8.372;2022-08-01T08:41:25;32.40;70.70
14995;DHT22;7593;49.006;8.372;2022-08-01T08:43:52;32.00;72.00
14995;DHT22;7593;49.006;8.372;2022-08-01T08:46:22;32.00;71.60
14995;DHT22;7593;49.006;8.372;2022-08-01T08:48:51;32.10;71.50
14995;DHT22;7593;49.006;8.372;2022-08-01T08:51:19;32.10;71.70
14995;DHT22;7593;49.006;8.372;2022-08-01T08:53:46;32.10;71.40
14995;DHT22;7593;49.006;8.372;2022-08-01T08:56:14;32.30;71.10
14995;DHT22;7593;49.006;8.372;2022-08-01T08:58:43;32.60;71.00
14995;DHT22;7593;49.006;8.372;2022-08-01T09:01:11;32.80;69.80
14995;DHT22;7593;49.006;8.372;2022-08-01T09:03:38;32.70;69.50
14995;DHT22;7593;49.006;8.372;2022-08-01T09:06:06;32.60;69.50
14995;DHT22;7593;49.006;8.372;2022-08-01T09:08:33;32.40;70.20
14995;DHT22;7593;49.006;8.372;2022-08-01T09:11:00;32.40;69.70
14995;DHT22;7593;49.006;8.372;2022-08-01T09:13:27;32.40;70.00
14995;DHT22;7593;49.006;8.372;2022-08-01T09:15:54;32.50;69.70
14995;DHT22;7593;49.006;8.372;2022-08-01T09:18:29;32.70;69.60
14995;DHT22;7593;49.006;8.372;2022-08-01T09:21:16;32.80;70.10
14995;DHT22;7593;49.006;8.372;2022-08-01T09:23:45;33.10;69.50
14995;DHT22;7593;49.006;8.372;2022-08-01T09:26:13;33.40;68.90
14995;DHT22;7593;49.006;8.372;2022-08-01T09:28:41;33.80;67.70
14995;DHT22;7593;49.006;8.372;2022-08-01T09:31:09;34.00;66.90
14995;DHT22;7593;49.006;8.372;2022-08-01T09:33:51;34.20;66.20
14995;DHT22;7593;49.006;8.372;2022-08-01T09:36:21;34.40;66.20
14995;DHT22;7593;49.006;8.372;2022-08-01T09:38:48;34.50;66.20
14995;DHT22;7593;49.006;8.372;2022-08-01T09:41:15;34.60;65.30
14995;DHT22;7593;49.006;8.372;2022-08-01T09:43:48;34.00;66.60
14995;DHT22;7593;49.006;8.372;2022-08-01T09:46:15;33.20;68.10
14995;DHT22;7593;49.006;8.372;2022-08-01T09:48:58;32.80;69.40
14995;DHT22;7593;49.006;8.372;2022-08-01T09:51:31;32.50;69.90
14995;DHT22;7593;49.006;8.372;2022-08-01T09:53:58;32.40;70.00
14995;DHT22;7593;49.006;8.372;2022-08-01T09:56:25;32.10;70.20
14995;DHT22;7593;49.006;8.372;2022-08-01T09:58:54;31.60;72.00
14995;DHT22;7593;49.006;8.372;2022-08-01T10:01:22;30.90;73.30
14995;DHT22;7593;49.006;8.372;2022-08-01T10:04:05;30.50;74.40
14995;DHT22;7593;49.006;8.372;2022-08-01T10:06:33;30.30;75.70
14995;DHT22;7593;49.006;8.372;2022-08-01T10:09:01;30.10;76.20
14995;DHT22;7593;49.006;8.372;2022-08-01T10:11:28;29.80;76.60
14995;DHT22;7593;49.006;8.372;2022-08-01T10:13:58;29.70;77.40
14995;DHT22;7593;49.006;8.372;2022-08-01T10:16:26;29.60;78.00
14995;DHT22;7593;49.006;8.372;2022-08-01T10:18:54;29.50;78.50
14995;DHT22;7593;49.006;8.372;2022-08-01T10:21:23;29.60;77.90
14995;DHT22;7593;49.006;8.372;2022-08-01T10:23:55;29.90;77.30
14995;DHT22;7593;49.006;8.372;2022-08-01T10:26:25;29.90;76.90
14995;DHT22;7593;49.006;8.372;2022-08-01T10:28:53;29.90;77.20
14995;DHT22;7593;49.006;8.372;2022-08-01T10:31:20;30.00;77.20
14995;DHT22;7593;49.006;8.372;2022-08-01T10:33:48;30.00;77.30
14995;DHT22;7593;49.006;8.372;2022-08-01T10:36:18;30.00;77.50
14995;DHT22;7593;49.006;8.372;2022-08-01T10:38:47;30.20;77.50
14995;DHT22;7593;49.006;8.372;2022-08-01T10:41:15;30.80;76.40
14995;DHT22;7593;49.006;8.372;2022-08-01T10:43:45;31.60;73.80
14995;DHT22;7593;49.006;8.372;2022-08-01T10:46:13;32.00;73.00
14995;DHT22;7593;49.006;8.372;2022-08-01T10:48:44;32.20;72.50
14995;DHT22;7593;49.006;8.372;2022-08-01T10:51:13;32.30;72.50
14995;DHT22;7593;49.006;8.372;2022-08-01T10:53:46;32.50;72.10
14995;DHT22;7593;49.006;8.372;2022-08-01T10:56:14;33.20;70.70
14995;DHT22;7593;49.006;8.372;2022-08-01T10:58:43;34.20;67.40
14995;DHT22;7593;49.006;8.372;2022-08-01T11:01:22;34.80;66.50
14995;DHT22;7593;49.006;8.372;2022-08-01T11:04:07;35.10;65.40
14995;DHT22;7593;49.006;8.372;2022-08-01T11:06:43;35.10;65.20
14995;DHT22;7593;49.006;8.372;2022-08-01T11:09:30;34.70;66.00
14995;DHT22;7593;49.006;8.372;2022-08-01T11:12:08;34.00;67.10
14995;DHT22;7593;49.006;8.372;2022-08-01T11:17:36;33.40;67.50
14995;DHT22;7593;49.006;8.372;2022-08-01T11:20:05;33.20;68.20
14995;DHT22;7593;49.006;8.372;2022-08-01T11:22:32;33.00;69.00
14995;DHT22;7593;49.006;8.372;2022-08-01T11:25:19;32.50;70.10
14995;DHT22;7593;49.006;8.372;2022-08-01T11:27:47;32.20;70.60
14995;DHT22;7593;49.006;8.372;2022-08-01T11:30:24;32.10;71.00
14995;DHT22;7593;49.006;8.372;2022-08-01T11:32:56;31.80;71.20
14995;DHT22;7593;49.006;8.372;2022-08-01T11:35:24;31.60;71.10
14995;DHT22;7593;49.006;8.372;2022-08-01T11:37:52;31.40;72.00
14995;DHT22;7593;49.006;8.372;2022-08-01T11:40:29;31.30;72.90
14995;DHT22;7593;49.006;8.372;2022-08-01T11:43:16;31.50;72.70
14995;DHT22;7593;49.006;8.372;2022-08-01T11:45:47;31.70;72.30
14995;DHT22;7593;49.006;8.372;2022-08-01T11:48:18;31.90;72.00
14995;DHT22;7593;49.006;8.372;2022-08-01T11:50:45;32.00;71.60
14995;DHT22;7593;49.006;8.372;2022-08-01T11:53:13;32.00;71.70
14995;DHT22;7593;49.006;8.372;2022-08-01T11:55:45;32.10;71.40
14995;DHT22;7593;49.006;8.372;2022-08-01T11:58:13;32.30;70.90
14995;DHT22;7593;49.006;8.372;2022-08-01T12:00:40;32.50;70.20
14995;DHT22;7593;49.006;8.372;2022-08-01T12:03:08;32.70;69.60
14995;DHT22;7593;49.006;8.372;2022-08-01T12:05:36;33.00;69.40
14995;DHT22;7593;49.006;8.372;2022-08-01T12:08:03;33.10;68.70
14995;DHT22;7593;49.006;8.372;2022-08-01T12:10:34;32.90;69.00
14995;DHT22;7593;49.006;8.372;2022-08-01T12:13:06;33.40;68.00
14995;DHT22;7593;49.006;8.372;2022-08-01T12:15:34;34.00;66.20
14995;DHT22;7593;49.006;8.372;2022-08-01T12:18:03;34.50;65.20
14995;DHT22;7593;49.006;8.372;2022-08-01T12:20:32;34.70;64.50
14995;DHT22;7593;49.006;8.372;2022-08-01T12:23:00;34.80;64.60
14995;DHT22;7593;49.006;8.372;2022-08-01T12:25:28;35.00;63.60
14995;DHT22;7593;49.006;8.372;2022-08-01T12:27:59;35.00;63.50
14995;DHT22;7593;49.006;8.372;2022-08-01T12:30:28;34.80;63.90
14995;DHT22;7593;49.006;8.372;2022-08-01T12:32:56;34.60;64.70
14995;DHT22;7593;49.006;8.372;2022-08-01T12:35:24;34.90;64.00
14995;DHT22;7593;49.006;8.372;2022-08-01T12:37:53;35.00;63.70
14995;DHT22;7593;49.006;8.372;2022-08-01T12:40:22;35.30;62.50
14995;DHT22;7593;49.006;8.372;2022-08-01T12:42:50;35.50;61.60
14995;DHT22;7593;49.006;8.372;2022-08-01T12:45:19;35.80;61.10
14995;DHT22;7593;49.006;8.372;2022-08-01T12:47:48;36.10;60.50
14995;DHT22;7593;49.006;8.372;2022-08-01T12:50:18;36.10;60.40
14995;DHT22;7593;49.006;8.372;2022-08-01T12:52:46;36.10;61.50
14995;DHT22;7593;49.006;8.372;2022-08-01T12:55:15;36.30;60.20
14995;DHT22;7593;49.006;8.372;2022-08-01T12:57:45;36.40;59.90
14995;DHT22;7593;49.006;8.372;2022-08-01T13:00:20;36.40;59.80
14995;DHT22;7593;49.006;8.372;2022-08-01T13:02:50;36.60;59.80
14995;DHT22;7593;49.006;8.372;2022-08-01T13:05:17;36.60;59.30
14995;DHT22;7593;49.006;8.372;2022-08-01T13:07:46;36.30;59.40
14995;DHT22;7593;49.006;8.372;2022-08-01T13:10:15;35.90;60.10
14995;DHT22;7593;49.006;8.372;2022-08-01T13:12:51;35.50;61.00
14995;DHT22;7593;49.006;8.372;2022-08-01T13:15:24;34.80;61.20
14995;DHT22;7593;49.006;8.372;2022-08-01T13:17:54;34.30;62.20
14995;DHT22;7593;49.006;8.372;2022-08-01T13:20:29;33.80;63.00
14995;DHT22;7593;49.006;8.372;2022-08-01T13:23:10;33.40;63.70
14995;DHT22;7593;49.006;8.372;2022-08-01T13:25:47;33.50;63.80
14995;DHT22;7593;49.006;8.372;2022-08-01T13:28:14;33.70;63.80
14995;DHT22;7593;49.006;8.372;2022-08-01T13:30:54;33.90;62.80
14995;DHT22;7593;49.006;8.372;2022-08-01T13:33:23;34.00;62.70
14995;DHT22;7593;49.006;8.372;2022-08-01T13:35:51;34.10;62.50
14995;DHT22;7593;49.006;8.372;2022-08-01T13:38:18;34.30;62.10
14995;DHT22;7593;49.006;8.372;2022-08-01T13:40:45;34.20;62.00
14995;DHT22;7593;49.006;8.372;2022-08-01T13:43:12;34.30;61.50
14995;DHT22;7593;49.006;8.372;2022-08-01T13:45:40;34.20;61.10
14995;DHT22;7593;49.006;8.372;2022-08-01T13:48:07;34.10;61.60
14995;DHT22;7593;49.006;8.372;2022-08-01T13:50:35;34.00;62.00
14995;DHT22;7593;49.006;8.372;2022-08-01T13:53:02;33.90;62.20
14995;DHT22;7593;49.006;8.372;2022-08-01T13:55:29;33.60;62.60
14995;DHT22;7593;49.006;8.372;2022-08-01T13:57:56;33.50;62.50
14995;DHT22;7593;49.006;8.372;2022-08-01T14:00:23;33.40;62.40
14995;DHT22;7593;49.006;8.372;2022-08-01T14:02:50;33.30;62.70
14995;DHT22;7593;49.006;8.372;2022-08-01T14:05:16;33.20;62.80
14995;DHT22;7593;49.006;8.372;2022-08-01T14:07:45;33.20;63.00
14995;DHT22;7593;49.006;8.372;2022-08-01T14:10:11;33.10;63.70
14995;DHT22;7593;49.006;8.372;2022-08-01T14:12:39;32.90;63.60
14995;DHT22;7593;49.006;8.372;2022-08-01T14:15:07;32.80;63.90
14995;DHT22;7593;49.006;8.372;2022-08-01T14:17:34;32.70;64.40
14995;DHT22;7593;49.006;8.372;2022-08-01T14:20:01;32.60;64.50
14995;DHT22;7593;49.006;8.372;2022-08-01T14:22:29;32.50;65.10
14995;DHT22;7593;49.006;8.372;2022-08-01T14:24:58;32.60;64.70
14995;DHT22;7593;49.006;8.372;2022-08-01T14:27:25;33.00;63.70
14995;DHT22;7593;49.006;8.372;2022-08-01T14:29:54;33.20;63.00
14995;DHT22;7593;49.006;8.372;2022-08-01T14:32:21;33.30;62.90
14995;DHT22;7593;49.006;8.372;2022-08-01T14:34:48;33.50;63.10
14995;DHT22;7593;49.006;8.372;2022-08-01T14:37:14;33.60;62.60
14995;DHT22;7593;49.006;8.372;2022-08-01T14:39:41;33.80;62.20
14995;DHT22;7593;49.006;8.372;2022-08-01T14:42:09;33.70;62.00
14995;DHT22;7593;49.006;8.372;2022-08-01T14:44:36;33.70;62.70
14995;DHT22;7593;49.006;8.372;2022-08-01T14:47:03;33.60;62.60
14995;DHT22;7593;49.006;8.372;2022-08-01T14:49:30;33.40;63.20
14995;DHT22;7593;49.006;8.372;2022-08-01T14:51:57;33.40;63.50
14995;DHT22;7593;49.006;8.372;2022-08-01T14:54:24;33.30;63.90
14995;DHT22;7593;49.006;8.372;2022-08-01T14:56:51;33.20;64.20
14995;DHT22;7593;49.006;8.372;2022-08-01T14:59:19;33.10;64.30
14995;DHT22;7593;49.006;8.372;2022-08-01T15:01:46;32.90;64.60
14995;DHT22;7593;49.006;8.372;2022-08-01T15:04:13;32.80;64.90
14995;DHT22;7593;49.006;8.372;2022-08-01T15:06:40;32.60;65.30
14995;DHT22;7593;49.006;8.372;2022-08-01T15:09:06;32.30;66.00
14995;DHT22;7593;49.006;8.372;2022-08-01T15:11:33;32.10;66.80
14995;DHT22;7593;49.006;8.372;2022-08-01T15:14:00;32.00;66.90
14995;DHT22;7593;49.006;8.372;2022-08-01T15:16:46;32.00;67.20
14995;DHT22;7593;49.006;8.372;2022-08-01T15:19:13;31.90;67.30
14995;DHT22;7593;49.006;8.372;2022-08-01T15:21:40;31.80;67.40
14995;DHT22;7593;49.006;8.372;2022-08-01T15:24:07;31.80;67.60
14995;DHT22;7593;49.006;8.372;2022-08-01T15:26:34;31.60;67.90
14995;DHT22;7593;49.006;8.372;2022-08-01T15:29:01;31.50;68.40
14995;DHT22;7593;49.006;8.372;2022-08-01T15:31:28;31.40;68.80
14995;DHT22;7593;49.006;8.372;2022-08-01T15:33:57;31.20;69.20
14995;DHT22;7593;49.006;8.372;2022-08-01T15:36:24;31.10;69.40
14995;DHT22;7593;49.006;8.372;2022-08-01T15:38:51;31.10;69.70
14995;DHT22;7593;49.006;8.372;2022-08-01T15:41:18;31.10;69.70
14995;DHT22;7593;49.006;8.372;2022-08-01T15:43:44;31.00;69.60
14995;DHT22;7593;49.006;8.372;2022-08-01T15:46:11;31.00;69.70
14995;DHT22;7593;49.006;8.372;2022-08-01T15:48:38;31.00;69.90
14995;DHT22;7593;49.006;8.372;2022-08-01T15:51:06;30.90;70.00
14995;DHT22;7593;49.006;8.372;2022-08-01T15:53:33;30.90;70.20
14995;DHT22;7593;49.006;8.372;2022-08-01T15:56:00;30.70;70.40
14995;DHT22;7593;49.006;8.372;2022-08-01T15:58:26;30.60;70.80
14995;DHT22;7593;49.006;8.372;2022-08-01T16:00:53;30.50;71.80